Weather observations for the past three days for
Cedar Rapids Airport
Metric (Imperial)
Date Time (cdt) Wind (kph) Vis. (km) Weather Sky Cond. Temperature (ºC) Relative Humidity Wind Chill (°C) Heat Index (°C) Pressure Precipitation (cm)
Air Dwpt 6 hour altimeter (cm) sea level (mb) 1 hr 3 hr 6 hr
Max. Min.
07 01:52 Calm 16.09 Fair CLR 0.6 -3.3 75% 76.15 1015.7
07 00:52 Calm 16.09 Fair CLR 3.3 -4.4 11.1 2.2 57% 76.17 1016.2
06 23:52 Calm 16.09 Fair CLR 2.8 -4.4 59% 76.17 1016.1
06 22:52 Calm 14.48 Fair CLR 3.3 -4.4 57% 76.17 1016.1
06 21:52 Calm 16.09 Fair CLR 4.4 -5 51% 76.2 1016.3
06 20:52 NW 9 16.09 Fair CLR 7.8 -5 40% 6 76.17 1015.9
06 19:52 NW 17 16.09 Fair CLR 9.4 -5 36% 7 76.15 1015.7
06 17:52 W 24 G 43 9.66 Mostly Cloudy with Haze BKN080 11.7 -4.4 32% 76.17 1016.0
06 16:52 W 28 14.48 Mostly Cloudy BKN080 11.1 -4.4 34% 76.17 1016.1
06 15:52 NW 22 G 41 16.09 Overcast OVC075 11.1 -4.4 34% 76.2 1016.4
06 14:52 W 31 G 46 16.09 Mostly Cloudy BKN075 11.1 -5 32% 76.25 1016.9
06 13:52 NW 33 G 56 16.09 Overcast and Breezy OVC070 11.1 -3.9 35% 76.25 1017.0
06 12:52 NW 28 G 48 16.09 Overcast OVC070 10.6 -3.9 11.7 3.9 36% 76.28 1017.2
06 11:52 NW 28 G 50 16.09 Mostly Cloudy BKN065 10.6 -4.4 35% 76.28 1017.1
06 10:52 NW 28 G 39 14.48 A Few Clouds FEW060 10.6 -3.9 36% 76.28 1016.9
06 09:52 NW 22 G 39 16.09 Fair CLR 8.3 -4.4 41% 5 76.28 1017.1
06 08:52 N 26 16.09 Fair CLR 7.2 -4.4 44% 4 76.25 1016.8
06 07:52 NW 13 16.09 Fair CLR 5 -2.8 57% 2 76.2 1016.3
06 06:52 NW 9 16.09 Fair CLR 3.3 -2.2 6.1 2.2 68% 1 76.15 1015.4
06 05:52 NW 11 16.09 Fair CLR 2.8 -2.8 67% 0 76.07 1014.5
06 04:52 NW 11 16.09 Fair CLR 2.8 -2.8 67% 0 76.05 1014.3
06 03:52 NW 11 16.09 Fair CLR 2.2 -3.3 67% -1 76 1013.7
06 02:52 NW 13 16.09 Fair CLR 2.8 -3.3 65% -0 76.02 1013.9
06 01:52 NW 11 16.09 Fair CLR 3.3 -3.3 62% 1 75.97 1013.3
06 00:52 NW 6 14.48 Fair CLR 6.1 -3.9 13.9 6.1 49% 75.95 1012.9
05 23:52 N 9 16.09 Fair CLR 8.3 -3.9 42% 7 75.92 1012.4
05 22:52 N 22 16.09 Fair CLR 10 -3.9 38% 7 75.9 1011.9
05 21:52 N 17 16.09 Fair CLR 10.6 -3.9 36% 75.87 1011.5
05 20:52 N 28 G 39 16.09 Fair CLR 11.7 -3.9 34% 75.79 1010.6
05 19:52 N 20 16.09 Fair CLR 12.8 -3.9 31% 75.72 1009.5
05 18:52 NW 30 16.09 Fair CLR 13.9 -4.4 15 12.8 28% 75.67 1009.1
05 17:52 NW 30 G 39 12.87 Fair CLR 14.4 -3.9 28% 75.64 1008.7
05 16:52 W 19 14.48 A Few Clouds FEW080 14.4 -3.3 29% 75.67 1008.9
05 15:52 W 19 16.09 A Few Clouds FEW075 14.4 -2.8 31% 75.72 1009.5
05 14:52 W 15 16.09 Partly Cloudy SCT075 13.9 -2.2 33% 75.77 1010.1
05 13:52 W 20 G 41 16.09 Fair CLR 13.3 -2.8 33% 75.82 1010.8
05 12:52 NW 26 G 35 16.09 Partly Cloudy SCT070 12.8 -2.8 13.3 5.6 34% 75.84 1011.1
05 11:52 NW 13 G 26 16.09 Fair CLR 11.7 -3.9 34% 75.84 1011.3
05 10:52 Calm 16.09 Fair CLR 10.6 -3.3 38% 75.84 1011.2
05 09:52 N 13 16.09 Fair CLR 10.6 -3.3 38% 75.79 1010.7
05 08:52 N 13 16.09 Fair CLR 10 -1.7 44% 8 75.77 1010.0
05 07:52 W 9 16.09 Fair CLR 8.3 1.1 61% 7 75.82 1010.7
05 06:52 W 9 16.09 Fair CLR 5.6 1.1 11.1 5.6 73% 4 75.82 1010.6
05 05:52 W 9 9.66 Fair with Haze CLR 6.1 -0.6 63% 4 75.69 1008.9
05 04:52 N 17 16.09 Mostly Cloudy BKN110 8.9 -2.8 44% 7 75.59 1007.4
05 03:52 N 11 16.09 Overcast SCT070 OVC100 8.9 -1.1 50% 7 75.64 1008.1
05 02:52 N 20 16.09 Overcast OVC110 9.4 -1.1 48% 7 75.57 1007.1
05 01:52 N 22 16.09 Mostly Cloudy BKN100 10 -2.2 43% 7 75.49 1006.2
05 00:52 N 35 G 61 14.48 Mostly Cloudy and Breezy SCT039 SCT070 BKN120 11.1 -2.8 21.7 11.1 38% 75.41 1005.0
04 23:52 N 31 G 41 16.09 Mostly Cloudy BKN100 12.2 -0.6 42% 75.44 1005.4
04 22:52 NW 13 16.09 Fair CLR 12.2 -1.1 40% 75.39 1004.9
04 21:52 NW 17 16.09 A Few Clouds FEW120 13.9 -1.7 34% 75.31 1003.9
04 20:52 N 26 16.09 Fair CLR 16.1 -1.1 31% 75.21 1002.3
04 19:52 N 39 G 59 12.87 Fair and Breezy CLR 18.3 -0.6 28% 75.11 1001.0
04 18:52 N 35 G 56 12.87 Fair and Breezy CLR 21.7 1.7 27.8 21.7 27% 75.01 999.6
04 17:52 NW 41 G 59 12.87 Fair and Breezy CLR 23.9 2.8 25% 25 74.93 998.8
04 15:52 W 37 G 61 16.09 A Few Clouds and Breezy FEW100 27.8 5.6 24% 27 74.85 997.5
04 14:52 W 39 G 52 16.09 A Few Clouds and Breezy FEW100 27.2 6.1 26% 26 74.9 998.3
04 13:52 W 33 G 50 16.09 Partly Cloudy and Breezy FEW100 SCT120 27.2 5.6 25% 26 74.93 998.8
04 12:52 W 31 G 50 16.09 Fair CLR 26.1 5.6 26.7 8.3 27% 26 74.96 998.8
04 11:52 SW 28 16.09 Fair CLR 25.6 6.7 30% 26 74.98 999.3
04 10:52 SW 24 16.09 Fair CLR 23.3 7.2 36% 75.03 999.9
04 09:52 SW 22 16.09 Fair CLR 19.4 6.7 44% 75.08 1000.7
04 08:52 S 22 14.48 Fair CLR 17.2 5.6 47% 75.13 1001.4
04 07:52 S 15 14.48 Fair CLR 13.9 6.1 60% 75.16 1001.9
04 06:52 S 9 8.05 Fair with Haze CLR 8.3 3.3 10 6.1 71% 7 75.18 1002.3
04 05:52 S 7 11.27 Fair CLR 7.2 2.2 71% 6 75.21 1002.4
04 04:52 S 9 16.09 Fair CLR 6.7 2.8 76% 5 75.23 1002.9
04 03:52 S 7 16.09 Fair CLR 6.1 2.2 76% 5 75.29 1003.5
04 02:52 S 7 16.09 Fair CLR 7.8 2.2 68% 7 75.34 1004.2
Date Time (cdt) Wind (kph) Vis. (km) Weather Sky Cond. Air Dwpt Max. Min. Relative Humidity Wind Chill (°C) Heat Index (°C) altimeter (cm) sea level (mb) 1 hr 3 hr 6 hr
6 hour
Temperature (ºC) Pressure Precipitation (cm)